Time;durP1;ratioP1;P1;durP2;ratioP2;P2;SDS_P1;SDS_P2;PMS_P1;PMS_P2;Temp;Humidity;BMP_temperature;BMP_pressure;BME280_temperature;BME280_humidity;BME280_pressure;Samples;Min_cycle;Max_cycle;Signal;HPM_P1;HPM_P2
2021/03/05 17:55:22;;;;;;;5.00;4.00;;;;;;;;;;5159497;27;21234;-43
2021/03/05 17:57:48;;;;;;;5.07;4.57;;;;;;;;;;5118964;27;21044;-41
2021/03/05 18:00:13;;;;;;;5.25;4.75;;;;;;;;;;5143063;27;21027;-42
2021/03/05 18:02:38;;;;;;;7.67;6.97;;;;;;;;;;5141547;27;20671;-43
2021/03/05 18:05:04;;;;;;;10.47;7.00;;;;;;;;;;5144248;27;20174;-42
2021/03/05 18:07:29;;;;;;;7.83;5.97;;;;;;;;;;5143150;27;20171;-42
2021/03/05 18:09:54;;;;;;;3.87;3.57;;;;;;;;;;5139168;27;20637;-43
2021/03/05 18:12:20;;;;;;;5.23;4.73;;;;;;;;;;5139746;27;20192;-43
2021/03/05 18:14:45;;;;;;;7.65;6.55;;;;;;;;;;5136083;27;20643;-43
2021/03/05 18:17:10;;;;;;;6.80;5.13;;;;;;;;;;5144261;27;20186;-43
2021/03/05 18:19:35;;;;;;;6.10;4.70;;;;;;;;;;5142174;27;20696;-43
2021/03/05 18:22:00;;;;;;;6.47;4.57;;;;;;;;;;5139827;27;20641;-43
2021/03/05 18:24:26;;;;;;;5.13;4.73;;;;;;;;;;5140530;27;20178;-43
2021/03/05 18:26:51;;;;;;;6.60;5.50;;;;;;;;;;5142458;27;20179;-43
2021/03/05 18:29:16;;;;;;;6.47;5.43;;;;;;;;;;5141941;27;20180;-43
2021/03/05 18:31:41;;;;;;;6.63;5.90;;;;;;;;;;5142235;27;20206;-43
2021/03/05 18:34:07;;;;;;;6.07;5.47;;;;;;;;;;5137981;27;20236;-43
2021/03/05 18:36:32;;;;;;;6.27;5.67;;;;;;;;;;5135545;27;20174;-43
2021/03/05 18:38:57;;;;;;;7.05;5.60;;;;;;;;;;5142216;27;20210;-43
2021/03/05 18:41:22;;;;;;;6.07;5.60;;;;;;;;;;5121838;27;20209;-43
2021/03/05 18:43:48;;;;;;;6.13;5.63;;;;;;;;;;5121248;27;20251;-43
2021/03/05 18:46:14;;;;;;;9.10;7.23;;;;;;;;;;5115381;27;20190;-43
2021/03/05 18:48:39;;;;;;;8.27;5.80;;;;;;;;;;5120801;27;20994;-43
2021/03/05 18:51:04;;;;;;;7.27;6.57;;;;;;;;;;5122458;28;20182;-43
2021/03/05 18:53:30;;;;;;;6.60;5.93;;;;;;;;;;5120391;27;20310;-43
2021/03/05 18:55:55;;;;;;;6.90;6.20;;;;;;;;;;5121287;28;20188;-43
2021/03/05 18:58:20;;;;;;;5.70;5.20;;;;;;;;;;5119027;28;20216;-43
2021/03/05 19:00:45;;;;;;;7.82;5.55;;;;;;;;;;5119711;28;20631;-43
2021/03/05 19:03:10;;;;;;;5.53;5.00;;;;;;;;;;5119595;28;20724;-44
2021/03/05 19:05:35;;;;;;;5.95;5.45;;;;;;;;;;5113583;28;20180;-44
2021/03/05 19:08:01;;;;;;;6.33;5.77;;;;;;;;;;5099181;28;20186;-44
2021/03/05 19:10:27;;;;;;;6.50;5.72;;;;;;;;;;5108953;28;20179;-43
2021/03/05 19:12:52;;;;;;;6.60;5.90;;;;;;;;;;5109551;28;20254;-43
2021/03/05 19:15:18;;;;;;;9.20;7.43;;;;;;;;;;5108290;27;20687;-44
2021/03/05 19:17:43;;;;;;;16.97;15.27;;;;;;;;;;5105195;28;20189;-43
2021/03/05 19:20:09;;;;;;;20.50;16.70;;;;;;;;;;5108088;28;20192;-42
2021/03/05 19:22:35;;;;;;;21.03;19.27;;;;;;;;;;5107115;28;20176;-42
2021/03/05 19:25:00;;;;;;;22.93;20.60;;;;;;;;;;5104334;28;20605;-43
2021/03/05 19:27:27;;;;;;;20.35;18.35;;;;;;;;;;5109003;28;20592;-43
2021/03/05 19:29:53;;;;;;;16.87;15.17;;;;;;;;;;5108437;28;20179;-43
2021/03/05 19:32:18;;;;;;;18.47;16.63;;;;;;;;;;5107943;28;21238;-43
2021/03/05 19:34:43;;;;;;;19.13;15.30;;;;;;;;;;5108284;28;21361;-42
2021/03/05 19:37:08;;;;;;;18.55;16.20;;;;;;;;;;5108374;28;20186;-45
2021/03/05 19:39:33;;;;;;;19.90;18.00;;;;;;;;;;5107812;28;20538;-42
2021/03/05 19:41:59;;;;;;;17.53;15.13;;;;;;;;;;5107841;28;20214;-43
2021/03/05 19:44:24;;;;;;;13.90;12.50;;;;;;;;;;5107469;27;20741;-42
2021/03/05 19:46:49;;;;;;;16.20;12.32;;;;;;;;;;5101545;28;20182;-43
2021/03/05 19:49:15;;;;;;;16.50;14.17;;;;;;;;;;5105073;28;20323;-43
2021/03/05 19:51:41;;;;;;;18.87;16.67;;;;;;;;;;5104923;27;20554;-44
2021/03/05 19:54:06;;;;;;;18.23;15.47;;;;;;;;;;5107173;28;20228;-42
2021/03/05 19:56:31;;;;;;;19.15;14.02;;;;;;;;;;5108738;27;20179;-43
2021/03/05 19:58:56;;;;;;;14.80;13.27;;;;;;;;;;5101581;27;20588;-43
2021/03/05 20:01:22;;;;;;;14.67;13.00;;;;;;;;;;5107346;27;20726;-43
2021/03/05 20:03:47;;;;;;;17.67;14.37;;;;;;;;;;5107911;28;20175;-42
2021/03/05 20:06:12;;;;;;;16.90;15.20;;;;;;;;;;5105978;27;20186;-43
2021/03/05 20:08:37;;;;;;;17.20;14.70;;;;;;;;;;5105470;28;20198;-44
2021/03/05 20:11:03;;;;;;;16.30;14.70;;;;;;;;;;5106020;28;20916;-44
2021/03/05 20:13:28;;;;;;;14.57;13.07;;;;;;;;;;5107499;28;20675;-44
2021/03/05 20:15:53;;;;;;;13.80;12.30;;;;;;;;;;5105040;28;20171;-43
2021/03/05 20:18:19;;;;;;;15.63;13.50;;;;;;;;;;5105656;28;20211;-43
2021/03/05 20:20:45;;;;;;;16.80;15.20;;;;;;;;;;5106756;28;20504;-43
2021/03/05 20:23:10;;;;;;;16.97;15.13;;;;;;;;;;5107514;28;20714;-43
2021/03/05 20:25:35;;;;;;;14.33;12.93;;;;;;;;;;5106890;28;20704;-43
2021/03/05 20:28:01;;;;;;;18.23;14.18;;;;;;;;;;5106946;28;20177;-43
2021/03/05 20:30:26;;;;;;;13.67;12.30;;;;;;;;;;5106025;28;20716;-42
2021/03/05 20:32:51;;;;;;;13.70;12.37;;;;;;;;;;5106453;28;20649;-43
2021/03/05 20:35:16;;;;;;;15.93;14.23;;;;;;;;;;5106278;28;20730;-42
2021/03/05 20:37:41;;;;;;;18.20;14.80;;;;;;;;;;5105586;28;20255;-43
2021/03/05 20:40:07;;;;;;;15.57;14.07;;;;;;;;;;5106847;28;20222;-42
2021/03/05 20:42:33;;;;;;;16.73;13.83;;;;;;;;;;5107009;28;20171;-43
2021/03/05 20:45:00;;;;;;;17.90;14.07;;;;;;;;;;5105711;28;20622;-43
2021/03/05 20:47:25;;;;;;;16.80;15.10;;;;;;;;;;5106423;28;20192;-42
2021/03/05 20:49:50;;;;;;;18.30;15.37;;;;;;;;;;5106424;28;20706;-43
2021/03/05 20:52:15;;;;;;;20.33;16.60;;;;;;;;;;5106327;28;20810;-42
2021/03/05 20:54:40;;;;;;;19.23;17.17;;;;;;;;;;5106619;28;20224;-42
2021/03/05 20:57:06;;;;;;;21.48;17.20;;;;;;;;;;5106675;28;20172;-42
2021/03/05 20:59:31;;;;;;;19.20;17.20;;;;;;;;;;5105877;28;20171;-42
2021/03/05 21:01:56;;;;;;;17.83;16.05;;;;;;;;;;5106419;27;20258;-44
2021/03/05 21:04:22;;;;;;;20.47;17.53;;;;;;;;;;5099069;27;20205;-44
2021/03/05 21:06:47;;;;;;;20.00;17.43;;;;;;;;;;5105867;28;20182;-43
2021/03/05 21:09:12;;;;;;;20.83;18.67;;;;;;;;;;5105109;28;20252;-43
2021/03/05 21:11:37;;;;;;;21.93;18.97;;;;;;;;;;5104765;28;20179;-43
2021/03/05 21:14:03;;;;;;;21.73;19.10;;;;;;;;;;5105844;28;20596;-43
2021/03/05 21:16:28;;;;;;;23.63;21.23;;;;;;;;;;5106465;28;20906;-43
2021/03/05 21:18:54;;;;;;;25.13;22.43;;;;;;;;;;5105900;28;20699;-44
2021/03/05 21:21:19;;;;;;;23.07;20.17;;;;;;;;;;5106328;28;20265;-43
2021/03/05 21:23:45;;;;;;;24.23;19.95;;;;;;;;;;5097431;28;20689;-41
2021/03/05 21:26:10;;;;;;;23.42;20.10;;;;;;;;;;5106717;28;20186;-43
2021/03/05 21:28:35;;;;;;;24.07;19.77;;;;;;;;;;5105531;28;20926;-42
2021/03/05 21:31:00;;;;;;;20.52;18.33;;;;;;;;;;5105922;28;20638;-43
2021/03/05 21:33:25;;;;;;;20.30;18.20;;;;;;;;;;5105810;28;20236;-42
2021/03/05 21:35:50;;;;;;;24.67;20.10;;;;;;;;;;5106268;28;20698;-43
2021/03/05 21:38:16;;;;;;;20.98;18.88;;;;;;;;;;5105208;28;20232;-44
2021/03/05 21:40:41;;;;;;;22.43;19.57;;;;;;;;;;5105691;28;20207;-43
2021/03/05 21:43:06;;;;;;;19.70;17.10;;;;;;;;;;5105462;28;20317;-43
2021/03/05 21:45:31;;;;;;;23.37;19.30;;;;;;;;;;5105887;28;20257;-43
2021/03/05 21:47:57;;;;;;;25.03;20.30;;;;;;;;;;5106440;28;20649;-40
2021/03/05 21:50:22;;;;;;;23.75;19.85;;;;;;;;;;5105157;28;20183;-42
2021/03/05 21:52:47;;;;;;;26.13;21.47;;;;;;;;;;5105727;28;20179;-42
2021/03/05 21:55:12;;;;;;;25.10;20.87;;;;;;;;;;5105006;28;20230;-41
2021/03/05 21:57:38;;;;;;;23.07;19.60;;;;;;;;;;5104653;28;20719;-42
2021/03/05 22:00:03;;;;;;;26.07;21.27;;;;;;;;;;5104664;28;20186;-41
2021/03/05 22:02:29;;;;;;;24.57;20.83;;;;;;;;;;5105189;28;20170;-42
2021/03/05 22:04:54;;;;;;;24.43;19.97;;;;;;;;;;5105385;28;20639;-42
2021/03/05 22:07:19;;;;;;;29.30;18.97;;;;;;;;;;5104498;28;20174;-43
2021/03/05 22:09:44;;;;;;;21.47;18.67;;;;;;;;;;5105062;28;20175;-43
2021/03/05 22:12:10;;;;;;;21.20;18.92;;;;;;;;;;5105940;28;20182;-42
2021/03/05 22:14:35;;;;;;;20.90;17.43;;;;;;;;;;5110330;28;20209;-42
2021/03/05 22:17:01;;;;;;;21.57;18.27;;;;;;;;;;5104967;28;20182;-42
2021/03/05 22:19:26;;;;;;;20.03;17.90;;;;;;;;;;5103942;28;20613;-43
2021/03/05 22:21:51;;;;;;;18.17;16.42;;;;;;;;;;5105205;28;20235;-42
2021/03/05 22:24:16;;;;;;;20.03;16.93;;;;;;;;;;5105563;28;20807;-42
2021/03/05 22:26:41;;;;;;;19.47;15.90;;;;;;;;;;5101860;28;20178;-42
2021/03/05 22:29:06;;;;;;;19.65;16.67;;;;;;;;;;5104519;28;20182;-43
2021/03/05 22:31:32;;;;;;;20.20;16.57;;;;;;;;;;5105512;28;20223;-43
2021/03/05 22:33:57;;;;;;;18.10;16.20;;;;;;;;;;5105969;28;20198;-43
2021/03/05 22:36:22;;;;;;;19.60;16.65;;;;;;;;;;5105425;28;20637;-44
2021/03/05 22:38:47;;;;;;;21.67;17.63;;;;;;;;;;5103036;28;20181;-42
2021/03/05 22:41:13;;;;;;;22.27;18.55;;;;;;;;;;5107096;28;20561;-43
2021/03/05 22:43:38;;;;;;;20.77;16.40;;;;;;;;;;5108226;28;20187;-43
2021/03/05 22:46:03;;;;;;;23.67;16.85;;;;;;;;;;5110010;28;20174;-43
2021/03/05 22:48:29;;;;;;;18.63;16.07;;;;;;;;;;5108783;28;20181;-43
2021/03/05 22:50:54;;;;;;;18.87;16.40;;;;;;;;;;5109372;28;20648;-43
2021/03/05 22:53:19;;;;;;;18.33;14.90;;;;;;;;;;5109345;28;20309;-43
2021/03/05 22:55:44;;;;;;;18.40;16.20;;;;;;;;;;5108922;28;20166;-43
2021/03/05 22:58:09;;;;;;;20.42;17.42;;;;;;;;;;5109362;28;20502;-43
2021/03/05 23:00:34;;;;;;;18.33;16.30;;;;;;;;;;5109602;28;20520;-42
2021/03/05 23:03:00;;;;;;;19.35;15.00;;;;;;;;;;5109395;28;20624;-41
2021/03/05 23:05:25;;;;;;;25.07;15.47;;;;;;;;;;5109461;27;20648;-42
2021/03/05 23:07:50;;;;;;;19.43;15.93;;;;;;;;;;5109130;28;20185;-43
2021/03/05 23:10:21;;;;;;;17.00;14.47;;;;;;;;;;5112304;28;20184;-43
2021/03/05 23:12:46;;;;;;;16.83;15.10;;;;;;;;;;5112704;28;20177;-43
2021/03/05 23:15:13;;;;;;;17.90;14.20;;;;;;;;;;5111967;28;20750;-44
2021/03/05 23:17:39;;;;;;;18.57;15.87;;;;;;;;;;5112166;28;20186;-42
2021/03/05 23:20:09;;;;;;;20.17;15.83;;;;;;;;;;5112309;28;20567;-42
2021/03/05 23:22:34;;;;;;;18.33;15.03;;;;;;;;;;5111890;28;20576;-43
2021/03/05 23:24:59;;;;;;;18.87;15.67;;;;;;;;;;5112154;28;20608;-42
2021/03/05 23:27:24;;;;;;;18.80;15.60;;;;;;;;;;5112179;28;20167;-42
2021/03/05 23:29:49;;;;;;;16.83;15.02;;;;;;;;;;5111946;28;20645;-43
2021/03/05 23:32:14;;;;;;;17.37;14.10;;;;;;;;;;5112324;28;20616;-43
2021/03/05 23:34:39;;;;;;;16.93;15.13;;;;;;;;;;5111481;27;20209;-43
2021/03/05 23:37:05;;;;;;;16.38;14.55;;;;;;;;;;5112123;28;20519;-43
2021/03/05 23:39:30;;;;;;;16.53;14.67;;;;;;;;;;5111576;28;20194;-43
2021/03/05 23:41:56;;;;;;;17.30;14.60;;;;;;;;;;5112233;28;20170;-43
2021/03/05 23:44:21;;;;;;;15.17;13.57;;;;;;;;;;5111439;28;20587;-43
2021/03/05 23:46:46;;;;;;;18.73;15.20;;;;;;;;;;5112024;28;20173;-43
2021/03/05 23:49:11;;;;;;;19.08;14.52;;;;;;;;;;5111326;28;20566;-43
2021/03/05 23:51:36;;;;;;;16.05;14.35;;;;;;;;;;5111391;28;20831;-43
2021/03/05 23:54:01;;;;;;;16.10;14.52;;;;;;;;;;5111578;27;20267;-43
2021/03/05 23:56:27;;;;;;;16.60;14.87;;;;;;;;;;5111261;28;20198;-43
2021/03/05 23:58:52;;;;;;;16.57;14.80;;;;;;;;;;5111248;28;20513;-43
